createdAt,value
2018-10-07T00:00:05.747Z,99659.72
2018-10-07T00:02:33.247Z,99665.81
2018-10-07T00:05:00.669Z,99664.44
2018-10-07T00:07:28.093Z,99663.17
2018-10-07T00:09:55.503Z,99660.57
2018-10-07T00:12:22.924Z,99654.48
2018-10-07T00:14:50.432Z,99655.80
2018-10-07T00:17:17.855Z,99659.68
2018-10-07T00:19:45.275Z,99659.22
2018-10-07T00:22:12.686Z,99658.80
2018-10-07T00:24:40.176Z,99655.75
2018-10-07T00:27:07.592Z,99658.77
2018-10-07T00:29:35.020Z,99653.95
2018-10-07T00:32:07.943Z,99657.33
2018-10-07T00:34:35.424Z,99655.66
2018-10-07T00:37:02.847Z,99642.70
2018-10-07T00:39:30.267Z,99640.48
2018-10-07T00:41:57.679Z,99636.15
2018-10-07T00:44:25.102Z,99636.13
2018-10-07T00:46:52.613Z,99639.60
2018-10-07T00:49:20.019Z,99640.41
2018-10-07T00:51:47.435Z,99634.80
2018-10-07T00:54:14.857Z,99636.88
2018-10-07T00:56:42.267Z,99637.72
2018-10-07T00:59:09.800Z,99635.45
2018-10-07T01:01:37.223Z,99638.48
2018-10-07T01:04:04.646Z,99649.23
2018-10-07T01:06:32.171Z,99642.78
2018-10-07T01:08:59.592Z,99637.86
2018-10-07T01:11:27.005Z,99638.01
2018-10-07T01:13:54.423Z,99639.26
2018-10-07T01:16:21.829Z,99640.09
2018-10-07T01:18:49.242Z,99631.89
2018-10-07T01:21:16.720Z,99631.52
2018-10-07T01:23:44.171Z,99630.63
2018-10-07T01:26:11.584Z,99633.09
2018-10-07T01:28:39.007Z,99632.27
2018-10-07T01:31:06.440Z,99630.44
2018-10-07T01:33:33.867Z,99637.30
2018-10-07T01:36:01.353Z,99638.20
2018-10-07T01:38:28.775Z,99638.84
2018-10-07T01:40:56.196Z,99640.17
2018-10-07T01:43:23.623Z,99641.53
2018-10-07T01:45:51.103Z,99639.67
2018-10-07T01:48:18.539Z,99648.01
2018-10-07T01:50:45.995Z,99650.56
2018-10-07T01:53:13.425Z,99646.64
2018-10-07T01:55:40.831Z,99648.41
2018-10-07T01:58:08.251Z,99644.75
2018-10-07T02:00:35.724Z,99652.48
2018-10-07T02:03:03.139Z,99655.61
2018-10-07T02:05:30.559Z,99662.57
2018-10-07T02:07:57.987Z,99656.93
2018-10-07T02:10:25.408Z,99649.88
2018-10-07T02:12:52.825Z,99653.78
2018-10-07T02:15:20.259Z,99656.16
2018-10-07T02:17:47.663Z,99659.40
2018-10-07T02:20:15.081Z,99669.78
2018-10-07T02:22:42.509Z,99664.70
2018-10-07T02:25:09.932Z,99665.03
2018-10-07T02:27:37.351Z,99674.07
2018-10-07T02:30:04.767Z,99668.86
2018-10-07T02:32:32.175Z,99669.89
2018-10-07T02:34:59.604Z,99660.31
2018-10-07T02:37:27.051Z,99674.92
2018-10-07T02:39:54.527Z,99668.88
2018-10-07T02:42:21.938Z,99666.45
2018-10-07T02:44:49.347Z,99670.44
2018-10-07T02:47:16.771Z,99675.98
2018-10-07T02:49:44.204Z,99672.92
2018-10-07T02:52:11.626Z,99677.19
2018-10-07T02:54:39.047Z,99681.35
2018-10-07T02:57:06.459Z,99672.80
2018-10-07T02:59:33.884Z,99678.33
2018-10-07T03:02:01.351Z,99679.36
2018-10-07T03:04:28.841Z,99680.93
2018-10-07T03:06:56.198Z,99683.49
2018-10-07T03:09:23.611Z,99685.80
2018-10-07T03:11:51.037Z,99683.61
2018-10-07T03:14:18.451Z,99679.86
2018-10-07T03:16:45.867Z,99672.84
2018-10-07T03:19:13.298Z,99677.12
2018-10-07T03:21:40.711Z,99677.09
2018-10-07T03:24:08.163Z,99676.81
2018-10-07T03:26:35.574Z,99672.22
2018-10-07T03:29:03.008Z,99680.34
2018-10-07T03:31:30.421Z,99680.73
2018-10-07T03:33:57.836Z,99684.43
2018-10-07T03:36:25.338Z,99684.84
2018-10-07T03:38:52.760Z,99689.22
2018-10-07T03:41:20.183Z,99682.87
2018-10-07T03:43:47.603Z,99691.62
2018-10-07T03:46:15.012Z,99688.26
2018-10-07T03:48:42.456Z,99683.02
2018-10-07T03:51:09.872Z,99686.91
2018-10-07T03:53:37.288Z,99690.38
2018-10-07T03:56:04.702Z,99695.95
2018-10-07T03:58:32.123Z,99701.06
2018-10-07T04:00:59.616Z,99704.17
2018-10-07T04:03:27.025Z,99706.29
2018-10-07T04:05:54.496Z,99703.55
2018-10-07T04:08:21.986Z,99708.74
2018-10-07T04:10:49.399Z,99707.53
2018-10-07T04:13:16.899Z,99707.19
2018-10-07T04:15:44.315Z,99702.49
2018-10-07T04:18:11.734Z,99703.71
2018-10-07T04:20:39.171Z,99700.22
2018-10-07T04:23:06.594Z,99706.52
2018-10-07T04:25:34.007Z,99707.55
2018-10-07T04:28:01.428Z,99714.58
2018-10-07T04:30:28.910Z,99719.44
2018-10-07T04:32:56.325Z,99721.91
2018-10-07T04:35:23.795Z,99716.35
2018-10-07T04:37:51.338Z,99718.00
2018-10-07T04:40:18.836Z,99716.64
2018-10-07T04:42:46.395Z,99721.86
2018-10-07T04:45:13.851Z,99724.68
2018-10-07T04:47:41.273Z,99716.53
2018-10-07T04:50:08.839Z,99723.55
2018-10-07T04:52:36.629Z,99722.73
2018-10-07T04:55:04.043Z,99713.06
2018-10-07T04:57:31.460Z,99719.80
2018-10-07T04:59:59.070Z,99719.74
2018-10-07T05:02:26.638Z,99725.63
2018-10-07T05:04:54.067Z,99728.28
2018-10-07T05:07:21.687Z,99737.43
2018-10-07T05:09:49.116Z,99746.70
2018-10-07T05:12:16.790Z,99743.27
2018-10-07T05:14:43.960Z,99751.80
2018-10-07T05:17:11.419Z,99746.05
2018-10-07T05:19:38.839Z,99753.55
2018-10-07T05:22:06.330Z,99758.39
2018-10-07T05:24:33.742Z,99761.00
2018-10-07T05:27:01.155Z,99758.10
2018-10-07T05:29:28.599Z,99768.02
2018-10-07T05:31:56.027Z,99777.77
2018-10-07T05:34:23.443Z,99776.66
2018-10-07T05:36:50.881Z,99786.20
2018-10-07T05:39:18.339Z,99795.64
2018-10-07T05:41:45.743Z,99798.58
2018-10-07T05:44:13.219Z,99810.87
2018-10-07T05:46:40.583Z,99805.51
2018-10-07T05:49:07.999Z,99818.02
2018-10-07T05:51:35.507Z,99827.47
2018-10-07T05:54:02.923Z,99817.06
2018-10-07T05:56:30.339Z,99817.31
2018-10-07T05:58:58.504Z,99824.22
2018-10-07T06:01:25.922Z,99830.69
2018-10-07T06:03:53.619Z,99832.38
2018-10-07T06:06:21.043Z,99834.91
2018-10-07T06:08:48.459Z,99846.34
2018-10-07T06:11:15.895Z,99844.54
2018-10-07T06:13:43.327Z,99854.23
2018-10-07T06:16:10.797Z,99862.38
2018-10-07T06:18:38.167Z,99868.14
2018-10-07T06:21:05.588Z,99863.84
2018-10-07T06:23:32.998Z,99872.81
2018-10-07T06:26:00.416Z,99878.08
2018-10-07T06:28:27.835Z,99879.98
2018-10-07T06:30:55.256Z,99888.45
2018-10-07T06:33:22.672Z,99892.11
2018-10-07T06:35:50.099Z,99893.44
2018-10-07T06:38:17.517Z,99896.19
2018-10-07T06:40:44.979Z,99893.42
2018-10-07T06:43:12.527Z,99903.77
2018-10-07T06:45:40.054Z,99905.38
2018-10-07T06:48:07.419Z,99906.42
2018-10-07T06:50:34.855Z,99919.24
2018-10-07T06:53:02.270Z,99926.14
2018-10-07T06:55:29.702Z,99922.70
2018-10-07T06:57:57.171Z,99924.84
2018-10-07T07:00:24.639Z,99938.73
2018-10-07T07:02:52.051Z,99938.02
2018-10-07T07:05:19.471Z,99942.97
2018-10-07T07:07:46.916Z,99949.13
2018-10-07T07:10:14.338Z,99946.70
2018-10-07T07:12:41.750Z,99947.19
2018-10-07T07:15:09.178Z,99952.75
2018-10-07T07:17:36.603Z,99957.60
2018-10-07T07:20:04.046Z,99961.15
2018-10-07T07:22:31.770Z,99961.14
2018-10-07T07:24:59.227Z,99959.09
2018-10-07T07:27:26.627Z,99969.16
2018-10-07T07:29:54.043Z,99974.41
2018-10-07T07:32:21.467Z,99973.97
2018-10-07T07:34:48.926Z,99974.81
2018-10-07T07:37:16.348Z,99980.48
2018-10-07T07:39:43.756Z,99987.92
2018-10-07T07:42:11.226Z,99987.88
2018-10-07T07:44:38.605Z,99977.84
2018-10-07T07:47:06.035Z,99974.80
2018-10-07T07:49:33.460Z,99972.09
2018-10-07T07:52:00.862Z,99976.36
2018-10-07T07:54:28.292Z,99981.52
2018-10-07T07:56:55.741Z,99997.27
2018-10-07T07:59:23.203Z,99998.89
2018-10-07T08:01:50.632Z,100012.39
2018-10-07T08:04:18.063Z,100014.66
2018-10-07T08:06:45.483Z,100023.28
2018-10-07T08:09:12.898Z,100027.23
2018-10-07T08:11:40.463Z,100026.61
2018-10-07T08:14:07.888Z,100028.73
2018-10-07T08:16:35.387Z,100031.64
2018-10-07T08:19:02.799Z,100031.47
2018-10-07T08:21:30.238Z,100028.27
2018-10-07T08:23:57.754Z,100022.80
2018-10-07T08:26:25.075Z,100028.14
2018-10-07T08:28:52.595Z,100031.38
2018-10-07T08:31:20.090Z,100023.91
2018-10-07T08:33:47.528Z,100024.48
2018-10-07T08:36:14.954Z,100021.00
2018-10-07T08:38:42.490Z,100028.80
2018-10-07T08:41:09.987Z,100032.39
2018-10-07T08:43:37.431Z,100031.07
2018-10-07T08:46:04.863Z,100036.56
2018-10-07T08:48:32.282Z,100030.18
2018-10-07T08:50:59.695Z,100038.92
2018-10-07T08:53:27.171Z,100047.95
2018-10-07T08:55:54.637Z,100042.19
2018-10-07T08:58:22.019Z,100045.77
2018-10-07T09:00:49.446Z,100057.69
2018-10-07T09:03:16.889Z,100062.53
2018-10-07T09:05:44.360Z,100064.03
2018-10-07T09:08:11.830Z,100064.11
2018-10-07T09:10:39.246Z,100073.53
2018-10-07T09:13:06.683Z,100075.91
2018-10-07T09:15:34.191Z,100079.09
2018-10-07T09:18:01.641Z,100077.26
2018-10-07T09:20:29.054Z,100083.78
2018-10-07T09:22:56.566Z,100092.17
2018-10-07T09:25:24.003Z,100088.90
2018-10-07T09:27:51.440Z,100093.84
2018-10-07T09:30:18.851Z,100096.64
2018-10-07T09:32:46.288Z,100097.22
2018-10-07T09:35:13.696Z,100102.43
2018-10-07T09:37:41.115Z,100113.33
2018-10-07T09:40:08.531Z,100119.28
2018-10-07T09:42:35.950Z,100128.48
2018-10-07T09:45:03.384Z,100138.23
2018-10-07T09:47:30.830Z,100141.81
2018-10-07T09:49:58.263Z,100148.73
2018-10-07T09:52:25.850Z,100153.21
2018-10-07T09:54:53.100Z,100155.82
2018-10-07T09:57:20.559Z,100172.41
2018-10-07T09:59:47.979Z,100170.46
2018-10-07T10:02:15.399Z,100178.91
2018-10-07T10:04:42.909Z,100189.00
2018-10-07T10:07:10.325Z,100199.95
2018-10-07T10:09:37.711Z,100197.83
2018-10-07T10:12:05.146Z,100215.35
2018-10-07T10:14:32.568Z,100224.53
2018-10-07T10:17:00.021Z,100230.20
2018-10-07T10:19:27.485Z,100226.70
2018-10-07T10:21:54.896Z,100241.09
2018-10-07T10:24:22.322Z,100242.84
2018-10-07T10:26:49.763Z,100246.69
2018-10-07T10:29:18.082Z,100251.97
2018-10-07T10:31:45.498Z,100246.22
2018-10-07T10:34:13.004Z,100251.48
2018-10-07T10:36:40.499Z,100249.67
2018-10-07T10:39:07.930Z,100260.61
2018-10-07T10:41:35.355Z,100259.31
2018-10-07T10:44:02.783Z,100249.74
2018-10-07T10:46:30.198Z,100275.42
2018-10-07T10:48:57.627Z,100258.04
2018-10-07T10:51:25.152Z,100281.03
2018-10-07T10:53:52.595Z,100280.52
2018-10-07T10:56:20.055Z,100279.23
2018-10-07T10:58:47.519Z,100282.00
2018-10-07T11:01:14.943Z,100283.53
2018-10-07T11:03:43.015Z,100286.16
2018-10-07T11:06:10.599Z,100287.02
2018-10-07T11:08:38.023Z,100285.14
2018-10-07T11:11:05.523Z,100286.95
2018-10-07T11:13:32.964Z,100288.63
2018-10-07T11:16:00.532Z,100293.46
2018-10-07T11:18:27.963Z,100292.84
2018-10-07T11:20:56.235Z,100294.95
2018-10-07T11:23:23.728Z,100301.16
2018-10-07T11:25:51.187Z,100304.69
2018-10-07T11:28:18.620Z,100308.98
2018-10-07T11:30:46.101Z,100313.39
2018-10-07T11:33:13.558Z,100319.40
2018-10-07T11:35:41.248Z,100325.59
2018-10-07T11:38:08.656Z,100328.84
2018-10-07T11:40:36.152Z,100332.25
2018-10-07T11:43:03.600Z,100330.41
2018-10-07T11:45:31.012Z,100333.25
2018-10-07T11:47:58.443Z,100331.97
2018-10-07T11:50:25.859Z,100341.51
2018-10-07T11:52:54.087Z,100337.50
2018-10-07T11:55:21.455Z,100333.16
2018-10-07T11:57:48.887Z,100344.95
2018-10-07T12:00:16.482Z,100348.19
2018-10-07T12:02:44.044Z,100348.48
2018-10-07T12:05:11.361Z,100355.37
2018-10-07T12:07:38.756Z,100351.38
2018-10-07T12:10:06.242Z,100343.31
2018-10-07T12:12:33.611Z,100350.46
2018-10-07T12:15:01.064Z,100350.59
2018-10-07T12:17:28.487Z,100356.16
2018-10-07T12:19:55.973Z,100357.58
2018-10-07T12:22:23.431Z,100349.45
2018-10-07T12:24:50.847Z,100359.34
2018-10-07T12:27:18.371Z,100369.37
2018-10-07T12:29:45.790Z,100377.56
2018-10-07T12:32:13.223Z,100388.23
2018-10-07T12:34:40.651Z,100392.08
2018-10-07T12:37:08.072Z,100395.30
2018-10-07T12:39:35.915Z,100399.78
2018-10-07T12:42:03.555Z,100399.67
2018-10-07T12:44:31.130Z,100409.44
2018-10-07T12:46:58.687Z,100414.59
2018-10-07T12:49:26.112Z,100413.33
2018-10-07T12:51:53.532Z,100410.91
2018-10-07T12:54:21.000Z,100419.84
2018-10-07T12:56:48.448Z,100430.47
2018-10-07T12:59:15.915Z,100432.99
2018-10-07T13:01:43.378Z,100429.27
2018-10-07T13:04:10.826Z,100444.63
2018-10-07T13:06:38.251Z,100438.95
2018-10-07T13:09:05.755Z,100443.15
2018-10-07T13:11:33.181Z,100440.56
2018-10-07T13:14:00.601Z,100454.97
2018-10-07T13:16:28.011Z,100457.00
2018-10-07T13:18:55.435Z,100454.50
2018-10-07T13:21:22.856Z,100457.56
2018-10-07T13:23:50.276Z,100463.35
2018-10-07T13:26:17.715Z,100468.22
2018-10-07T13:28:45.130Z,100472.00
2018-10-07T13:31:12.544Z,100477.39
2018-10-07T13:33:40.042Z,100485.23
2018-10-07T13:36:07.431Z,100485.95
2018-10-07T13:38:34.859Z,100491.98
2018-10-07T13:41:02.279Z,100488.84
2018-10-07T13:43:29.707Z,100482.89
2018-10-07T13:45:57.188Z,100483.52
2018-10-07T13:48:24.647Z,100487.49
2018-10-07T13:50:52.175Z,100496.77
2018-10-07T13:53:19.642Z,100495.64
2018-10-07T13:55:47.010Z,100503.17
2018-10-07T13:58:14.428Z,100503.62
2018-10-07T14:00:41.859Z,100507.31
2018-10-07T14:03:09.271Z,100505.17
2018-10-07T14:05:36.695Z,100506.09
2018-10-07T14:08:04.217Z,100518.70
2018-10-07T14:10:31.831Z,100512.98
2018-10-07T14:12:59.400Z,100517.02
2018-10-07T14:15:26.820Z,100527.73
2018-10-07T14:17:54.239Z,100533.39
2018-10-07T14:20:21.776Z,100530.80
2018-10-07T14:22:49.267Z,100535.73
2018-10-07T14:25:16.690Z,100527.81
2018-10-07T14:27:44.173Z,100539.59
2018-10-07T14:30:11.639Z,100538.37
2018-10-07T14:32:39.069Z,100535.86
2018-10-07T14:35:06.544Z,100552.56
2018-10-07T14:37:33.983Z,100548.71
2018-10-07T14:40:01.399Z,100545.41
2018-10-07T14:42:28.819Z,100551.77
2018-10-07T14:44:56.242Z,100563.11
2018-10-07T14:47:23.696Z,100570.47
2018-10-07T14:49:51.111Z,100571.09
2018-10-07T14:52:18.534Z,100563.55
2018-10-07T14:54:45.958Z,100570.68
2018-10-07T14:57:13.371Z,100570.16
2018-10-07T14:59:40.786Z,100573.95
2018-10-07T15:02:08.206Z,100573.81
2018-10-07T15:04:35.629Z,100577.69
2018-10-07T15:07:03.031Z,100583.47
2018-10-07T15:09:30.461Z,100583.43
2018-10-07T15:11:57.867Z,100584.21
2018-10-07T15:14:25.291Z,100588.77
2018-10-07T15:16:52.690Z,100585.45
2018-10-07T15:19:20.172Z,100597.98
2018-10-07T15:21:47.627Z,100599.09
2018-10-07T15:24:15.046Z,100611.94
2018-10-07T15:26:42.462Z,100612.30
2018-10-07T15:29:09.923Z,100609.23
2018-10-07T15:31:37.323Z,100612.08
2018-10-07T15:34:04.738Z,100618.16
2018-10-07T15:36:32.150Z,100622.84
2018-10-07T15:38:59.568Z,100623.61
2018-10-07T15:41:26.991Z,100629.64
2018-10-07T15:43:54.399Z,100637.63
2018-10-07T15:46:21.816Z,100639.35
2018-10-07T15:48:49.230Z,100641.30
2018-10-07T15:51:16.679Z,100645.85
2018-10-07T15:53:44.141Z,100648.39
2018-10-07T15:56:11.521Z,100658.78
2018-10-07T15:58:38.939Z,100658.14
2018-10-07T16:01:06.443Z,100664.28
2018-10-07T16:03:33.871Z,100677.33
2018-10-07T16:06:01.304Z,100682.92
2018-10-07T16:08:28.719Z,100696.68
2018-10-07T16:10:56.133Z,100690.97
2018-10-07T16:13:23.552Z,100694.94
2018-10-07T16:15:50.976Z,100697.29
2018-10-07T16:18:18.458Z,100704.92
2018-10-07T16:20:45.847Z,100704.23
2018-10-07T16:23:13.255Z,100704.25
2018-10-07T16:25:40.711Z,100710.92
2018-10-07T16:28:08.135Z,100705.75
2018-10-07T16:30:35.563Z,100714.17
2018-10-07T16:33:02.977Z,100715.70
2018-10-07T16:35:30.391Z,100714.98
2018-10-07T16:37:57.806Z,100720.20
2018-10-07T16:40:25.319Z,100721.05
2018-10-07T16:42:53.076Z,100726.52
2018-10-07T16:45:20.502Z,100740.78
2018-10-07T16:47:47.927Z,100743.80
2018-10-07T16:50:15.385Z,100747.75
2018-10-07T16:52:42.804Z,100751.02
2018-10-07T16:55:10.222Z,100756.50
2018-10-07T16:57:37.635Z,100763.33
2018-10-07T17:00:05.060Z,100770.41
2018-10-07T17:02:32.540Z,100774.63
2018-10-07T17:04:59.980Z,100779.66
2018-10-07T17:07:27.391Z,100780.16
2018-10-07T17:09:54.808Z,100782.48
2018-10-07T17:12:22.228Z,100783.22
2018-10-07T17:14:49.635Z,100788.03
2018-10-07T17:17:17.073Z,100794.28
2018-10-07T17:19:44.470Z,100792.75
2018-10-07T17:22:11.921Z,100802.94
2018-10-07T17:24:39.334Z,100799.61
2018-10-07T17:27:06.827Z,100813.61
2018-10-07T17:29:34.175Z,100805.33
2018-10-07T17:32:01.629Z,100807.74
2018-10-07T17:34:29.037Z,100806.80
2018-10-07T17:36:56.567Z,100815.08
2018-10-07T17:39:23.988Z,100826.72
2018-10-07T17:41:51.404Z,100832.94
2018-10-07T17:44:18.836Z,100836.86
2018-10-07T17:46:46.264Z,100829.79
2018-10-07T17:49:13.679Z,100838.24
2018-10-07T17:51:41.099Z,100845.77
2018-10-07T17:54:08.564Z,100849.87
2018-10-07T17:56:36.095Z,100846.39
2018-10-07T17:59:03.526Z,100854.23
2018-10-07T18:01:30.980Z,100851.81
2018-10-07T18:03:58.399Z,100852.05
2018-10-07T18:06:25.862Z,100858.77
2018-10-07T18:08:53.279Z,100862.04
2018-10-07T18:11:20.694Z,100861.95
2018-10-07T18:13:48.107Z,100875.95
2018-10-07T18:16:15.522Z,100869.25
2018-10-07T18:18:42.948Z,100879.48
2018-10-07T18:21:10.480Z,100871.11
2018-10-07T18:23:37.779Z,100884.98
2018-10-07T18:26:05.195Z,100876.95
2018-10-07T18:28:32.667Z,100881.63
2018-10-07T18:31:00.080Z,100890.48
2018-10-07T18:33:27.493Z,100889.36
2018-10-07T18:35:54.914Z,100890.14
2018-10-07T18:38:22.395Z,100890.33
2018-10-07T18:40:49.779Z,100892.09
2018-10-07T18:43:17.277Z,100891.28
2018-10-07T18:45:44.662Z,100891.30
2018-10-07T18:48:12.057Z,100899.16
2018-10-07T18:50:39.473Z,100896.14
2018-10-07T18:53:06.883Z,100897.95
2018-10-07T18:55:34.301Z,100894.06
2018-10-07T18:58:01.724Z,100904.41
2018-10-07T19:00:29.138Z,100903.54
2018-10-07T19:02:56.785Z,100903.63
2018-10-07T19:05:24.075Z,100898.17
2018-10-07T19:07:51.655Z,100909.02
2018-10-07T19:10:19.171Z,100909.75
2018-10-07T19:12:46.587Z,100911.55
2018-10-07T19:15:13.996Z,100913.10
2018-10-07T19:17:41.419Z,100908.89
2018-10-07T19:20:08.835Z,100918.19
2018-10-07T19:22:36.256Z,100917.31
2018-10-07T19:25:03.671Z,100926.29
2018-10-07T19:27:31.139Z,100925.18
2018-10-07T19:29:58.575Z,100925.18
2018-10-07T19:32:26.015Z,100931.03
2018-10-07T19:34:53.435Z,100930.62
2018-10-07T19:37:21.015Z,100933.37
2018-10-07T19:39:48.259Z,100934.52
2018-10-07T19:42:15.688Z,100938.34
2018-10-07T19:44:43.149Z,100939.84
2018-10-07T19:47:10.534Z,100931.87
2018-10-07T19:49:37.935Z,100930.20
2018-10-07T19:52:05.361Z,100929.64
2018-10-07T19:54:32.780Z,100930.88
2018-10-07T19:57:00.199Z,100934.88
2018-10-07T19:59:27.681Z,100927.58
2018-10-07T20:01:55.095Z,100927.11
2018-10-07T20:04:22.519Z,100927.77
2018-10-07T20:06:49.943Z,100922.91
2018-10-07T20:09:17.355Z,100923.43
2018-10-07T20:11:44.780Z,100915.13
2018-10-07T20:14:12.203Z,100922.98
2018-10-07T20:16:39.779Z,100925.55
2018-10-07T20:19:07.427Z,100924.59
2018-10-07T20:21:34.867Z,100932.80
2018-10-07T20:24:02.228Z,100930.34
2018-10-07T20:26:29.712Z,100933.81
2018-10-07T20:28:57.177Z,100935.36
2018-10-07T20:31:24.587Z,100939.05
2018-10-07T20:33:52.291Z,100938.89
2018-10-07T20:36:19.671Z,100940.47
2018-10-07T20:38:47.091Z,100938.56
2018-10-07T20:41:14.503Z,100937.42
2018-10-07T20:43:42.018Z,100936.85
2018-10-07T20:46:09.444Z,100942.28
2018-10-07T20:48:36.868Z,100944.52
2018-10-07T20:51:04.347Z,100943.52
2018-10-07T20:53:31.764Z,100944.52
2018-10-07T20:55:59.202Z,100949.08
2018-10-07T20:58:26.631Z,100946.75
2018-10-07T21:00:54.047Z,100945.02
2018-10-07T21:03:21.479Z,100947.07
2018-10-07T21:05:48.927Z,100950.19
2018-10-07T21:08:16.348Z,100945.46
2018-10-07T21:10:43.791Z,100949.77
2018-10-07T21:13:11.266Z,100946.98
2018-10-07T21:15:38.684Z,100936.33
2018-10-07T21:18:06.098Z,100942.30
2018-10-07T21:20:33.503Z,100942.98
2018-10-07T21:23:00.929Z,100937.98
2018-10-07T21:25:28.336Z,100933.45
2018-10-07T21:27:55.746Z,100938.37
2018-10-07T21:30:23.155Z,100936.52
2018-10-07T21:32:50.581Z,100945.23
2018-10-07T21:35:17.991Z,100936.34
2018-10-07T21:37:45.534Z,100941.36
2018-10-07T21:40:12.949Z,100945.91
2018-10-07T21:42:40.353Z,100942.84
2018-10-07T21:45:07.840Z,100937.89
2018-10-07T21:47:35.300Z,100933.91
2018-10-07T21:50:02.757Z,100936.79
2018-10-07T21:52:30.209Z,100934.94
2018-10-07T21:54:57.679Z,100937.83
2018-10-07T21:57:25.099Z,100941.08
2018-10-07T21:59:52.652Z,100943.88
2018-10-07T22:02:20.063Z,100934.58
2018-10-07T22:04:47.466Z,100942.16
2018-10-07T22:07:14.878Z,100940.95
2018-10-07T22:09:42.279Z,100942.28
2018-10-07T22:12:09.686Z,100942.25
2018-10-07T22:14:37.127Z,100952.36
2018-10-07T22:17:04.546Z,100944.80
2018-10-07T22:19:32.391Z,100951.39
2018-10-07T22:21:59.798Z,100943.89
2018-10-07T22:24:27.207Z,100950.97
2018-10-07T22:26:54.625Z,100956.39
2018-10-07T22:29:22.047Z,100945.39
2018-10-07T22:31:49.458Z,100951.98
2018-10-07T22:34:16.876Z,100952.08
2018-10-07T22:36:44.286Z,100949.79
2018-10-07T22:39:11.709Z,100947.95
2018-10-07T22:41:39.125Z,100946.70
2018-10-07T22:44:06.538Z,100948.84
2018-10-07T22:46:33.947Z,100948.52
2018-10-07T22:49:01.375Z,100946.70
2018-10-07T22:51:28.780Z,100950.68
2018-10-07T22:53:56.205Z,100953.98
2018-10-07T22:56:23.611Z,100955.27
2018-10-07T22:58:51.026Z,100951.52
2018-10-07T23:01:18.445Z,100955.77
2018-10-07T23:03:45.856Z,100944.02
2018-10-07T23:06:13.332Z,100949.61
2018-10-07T23:08:40.771Z,100958.64
2018-10-07T23:11:08.276Z,100948.53
2018-10-07T23:13:35.686Z,100966.34
2018-10-07T23:16:03.092Z,100963.30
2018-10-07T23:18:30.607Z,100960.92
2018-10-07T23:20:58.010Z,100962.91
2018-10-07T23:23:25.426Z,100964.59
2018-10-07T23:25:52.814Z,100964.84
2018-10-07T23:28:20.236Z,100969.04
2018-10-07T23:30:47.703Z,100972.89
2018-10-07T23:33:15.115Z,100975.03
2018-10-07T23:35:42.515Z,100965.63
2018-10-07T23:38:09.924Z,100964.82
2018-10-07T23:40:37.330Z,100969.58
2018-10-07T23:43:04.750Z,100964.77
2018-10-07T23:45:32.156Z,100969.73
2018-10-07T23:47:59.576Z,100974.38
2018-10-07T23:50:26.987Z,100973.66
2018-10-07T23:52:54.396Z,100970.61
2018-10-07T23:55:21.875Z,100974.55
2018-10-07T23:57:49.287Z,100965.30
